METAR & TAF

[Source: ADDS]
METAR
LIPL 271455Z 30002KT CAVOK 12/05 Q1025 RMK SCT SCT120 VIS MIN 9999 WIND THR31 24001KT WIND THR13 25001KT BLU =
LIPL 271400Z 2715/2724 VRB03KT 9999 BKN060 TEMPO 2718/2724 4000 BR SCT060
TAF
LIPL 271400Z 2715/2724 VRB03KT 9999 BKN060 TEMPO 2718/2724 4000 BR SCT060 =

Notice: Undefined index: sun in /web/htdocs/www.154gruppovirtuale.it/home/modules/mod_wx/tmpl/default.php on line 13
Badge

Bottom B

Bottom B 1 Lorem ipsum dolor sit amet, consectetur adipisicing elit, sed do eiusmod tempor incididunt ut labore et dolore.

Badge

Bottom B

Bottom B3 Lorem ipsum dolor sit amet, consectetur adipisicing elit, sed do eiusmod tempor incididunt ut labore et dolore.

Simulation Platform

 
Badge

Bottom B

Bottom B4 Lorem ipsum dolor sit amet, consectetur adipisicing elit, sed do eiusmod tempor incididunt ut labore et dolore.